Hovedside
METAR-TAF:

METAR-TAF

Lufthavner :

Skellefteå, Sverige

Skellefteå lufthavn

breddegrad: 64-38N, lengdegrad: 021-05E, høyde over havet: 49 m

Gjeldene værobservasjon

Denne rapporten ble laget for 15 minutter siden, klokken 21:50 UTC
Vind 3 kt fra Sør
Temperatur 14°C
Luftfuktighet 94%
Trykk 1010 hPa
Sikt 10 km eller mer

METAR: ESNS 182150Z AUTO 19003KT 9999 NCD 14/13 Q1010

Tid: 00:05 (22:05 UTC)

Varsel

Denne rapporten ble laget for 4 timer og 35 minutter siden, klokken 17:30 UTC
Varsel gyldig fra 18. klokken 18 UTC til 18. klokken 22 UTC
Vind 4 kt fra Sør-sørøst
Sikt 10 km eller mer
Spredte skyer i en høyde av 2500 ft

TAF: ESNS 181730Z 1818/1822 16004KT 9999 SCT025

Værobservasjoner og værvarsel for over 4000 flyplasser (METAR- og TAF-rapporter).

Tilgjengelige stasjoner er representert av de røde og gule prikkene på kartet.

Hold musepekeren over prikken for å se navnet på stasjonen.

Klikk så for å se værobservasjoner og -varsler.

For å forandre kartet kan du klikke på den grønne knappen med svart kryss for å zoome inn, på den grønne knappen med strek for å zoome ut, eller på de grønne pilene for å se tilstøtende kart.


METAR-TAF: